Time;durP1;ratioP1;P1;durP2;ratioP2;P2;SDS_P1;SDS_P2;PMS_P1;PMS_P2;Temp;Humidity;BMP_temperature;BMP_pressure;BME280_temperature;BME280_humidity;BME280_pressure;Samples;Min_cycle;Max_cycle;Signal;HPM_P1;HPM_P2
2021/05/16 00:01:22;;;;;;;5.43;1.80;;;;;;;18.92;57.12;99806.31;5021678;28;20049;-44
2021/05/16 00:03:50;;;;;;;2.50;1.48;;;;;;;18.92;56.87;99802.81;5021855;28;20051;-41
2021/05/16 00:06:15;;;;;;;1.60;1.48;;;;;;;18.91;56.98;99796.66;5002934;28;20082;-44
2021/05/16 00:08:41;;;;;;;1.38;1.30;;;;;;;18.90;56.90;99797.81;5021714;28;20034;-44
2021/05/16 00:11:06;;;;;;;4.68;1.73;;;;;;;18.91;56.93;99804.75;5022226;28;20058;-45
2021/05/16 00:13:32;;;;;;;2.10;1.73;;;;;;;18.91;57.09;99807.44;5003207;28;20156;-43
2021/05/16 00:15:57;;;;;;;2.67;1.50;;;;;;;18.92;56.96;99795.53;5021570;28;20048;-43
2021/05/16 00:18:22;;;;;;;1.92;1.60;;;;;;;18.92;56.86;99797.44;5021764;28;20049;-45
2021/05/16 00:20:48;;;;;;;1.63;1.50;;;;;;;18.91;56.93;99804.75;5021891;28;20051;-43
2021/05/16 00:23:13;;;;;;;2.05;1.73;;;;;;;18.91;56.87;99793.19;5004306;28;20526;-44
2021/05/16 00:25:39;;;;;;;2.00;1.80;;;;;;;18.91;56.93;99788.59;5020787;28;20125;-42
2021/05/16 00:28:05;;;;;;;1.80;1.67;;;;;;;18.90;57.04;99795.13;5021441;28;20033;-43
2021/05/16 00:30:30;;;;;;;1.85;1.75;;;;;;;18.90;56.96;99797.03;4969712;28;20500;-43
2021/05/16 00:32:56;;;;;;;2.70;2.00;;;;;;;18.89;57.15;99796.25;5022695;28;20492;-44
2021/05/16 00:35:23;;;;;;;3.33;1.95;;;;;;;18.89;56.97;99801.63;5024308;28;20029;-42
2021/05/16 00:37:48;;;;;;;2.33;1.77;;;;;;;18.89;56.94;99801.63;5025768;28;20068;-46
2021/05/16 00:40:14;;;;;;;4.30;2.13;;;;;;;18.90;56.90;99803.19;5024736;28;20041;-44
2021/05/16 00:42:40;;;;;;;2.88;1.90;;;;;;;18.89;57.11;99801.63;5024788;28;20037;-43
2021/05/16 00:45:07;;;;;;;1.85;1.75;;;;;;;18.89;56.93;99807.03;4990936;28;20132;-42
2021/05/16 00:47:32;;;;;;;3.78;2.20;;;;;;;18.89;57.18;99793.56;5007472;28;20033;-45
2021/05/16 00:49:58;;;;;;;3.28;2.22;;;;;;;18.88;57.13;99792.00;5025020;28;20042;-44
2021/05/16 00:52:24;;;;;;;3.08;2.42;;;;;;;18.89;57.06;99795.47;5024523;28;20518;-43
2021/05/16 00:54:53;;;;;;;3.17;2.08;;;;;;;18.90;56.72;99805.13;5025541;28;20060;-44
2021/05/16 00:57:18;;;;;;;4.07;2.65;;;;;;;18.89;57.21;99790.09;5024997;28;20044;-41
2021/05/16 00:59:44;;;;;;;3.00;2.45;;;;;;;18.88;57.26;99792.00;5025080;28;20026;-42
2021/05/16 01:02:09;;;;;;;4.35;2.60;;;;;;;18.89;57.04;99790.88;5025006;28;20041;-44
2021/05/16 01:04:35;;;;;;;2.63;2.40;;;;;;;18.88;57.17;99791.22;5007738;28;20030;-41
2021/05/16 01:07:00;;;;;;;4.15;2.40;;;;;;;18.88;57.07;99794.69;5024720;28;20061;-40
2021/05/16 01:09:27;;;;;;;2.83;2.20;;;;;;;18.87;57.07;99798.53;5007313;28;20041;-40
2021/05/16 01:11:52;;;;;;;3.97;2.38;;;;;;;18.86;57.14;99796.97;5025498;28;20038;-40
2021/05/16 01:14:30;;;;;;;4.25;2.78;;;;;;;18.84;57.26;99795.78;5006144;28;20644;-40
2021/05/16 01:16:55;;;;;;;4.10;2.60;;;;;;;18.85;57.09;99798.09;5009023;28;20045;-42
2021/05/16 01:19:20;;;;;;;2.85;2.35;;;;;;;18.86;57.19;99790.81;5006731;28;20051;-40
2021/05/16 01:21:46;;;;;;;3.22;2.47;;;;;;;18.85;57.53;99784.66;5024305;28;20045;-40
2021/05/16 01:24:16;;;;;;;4.47;2.50;;;;;;;18.84;57.04;99785.03;4989782;28;20495;-42
2021/05/16 01:26:45;;;;;;;3.15;2.50;;;;;;;18.85;57.17;99784.66;5006235;28;20044;-40
2021/05/16 01:29:11;;;;;;;9.25;3.15;;;;;;;18.83;57.09;99792.31;5006455;28;20041;-41
2021/05/16 01:31:37;;;;;;;3.90;2.78;;;;;;;18.85;57.20;99790.03;4973108;28;20049;-43
2021/05/16 01:34:02;;;;;;;3.45;2.58;;;;;;;18.84;57.32;99785.03;4986899;28;20034;-39
2021/05/16 01:36:28;;;;;;;4.53;2.90;;;;;;;18.82;57.20;99779.22;5024262;28;20060;-41
2021/05/16 01:38:53;;;;;;;3.88;2.50;;;;;;;18.84;57.26;99785.03;5006972;28;20059;-40
2021/05/16 01:41:18;;;;;;;6.47;3.50;;;;;;;18.83;57.17;99797.69;5023836;28;20045;-40
2021/05/16 01:43:44;;;;;;;3.78;3.15;;;;;;;18.81;57.31;99788.44;5005203;28;20042;-40
2021/05/16 01:46:09;;;;;;;10.50;3.95;;;;;;;18.78;57.22;99789.94;5024182;28;20064;-42
2021/05/16 01:48:34;;;;;;;4.00;3.03;;;;;;;18.82;57.12;99790.00;4989840;28;20045;-40
2021/05/16 01:51:00;;;;;;;5.55;3.05;;;;;;;18.82;57.16;99784.63;5005312;28;20041;-40
2021/05/16 01:53:25;;;;;;;4.85;2.90;;;;;;;18.83;57.23;99786.16;5005134;28;20041;-44
2021/05/16 01:55:50;;;;;;;6.55;3.15;;;;;;;18.82;57.30;99784.63;5005199;28;20505;-40
2021/05/16 01:58:16;;;;;;;5.20;3.10;;;;;;;18.81;57.14;99791.91;5004848;28;20037;-42
2021/05/16 02:00:42;;;;;;;7.20;3.50;;;;;;;18.79;57.29;99785.34;5022541;28;20049;-40
2021/05/16 02:03:07;;;;;;;6.15;3.40;;;;;;;18.81;57.34;99791.91;5003926;28;20034;-42
2021/05/16 02:05:32;;;;;;;8.38;3.85;;;;;;;18.75;57.17;99785.28;5005639;28;20029;-41
2021/05/16 02:07:58;;;;;;;7.35;3.72;;;;;;;18.75;57.18;99795.25;5005213;28;20037;-39
2021/05/16 02:10:24;;;;;;;7.82;3.80;;;;;;;18.78;57.29;99795.31;4986548;28;20112;-41
2021/05/16 02:12:49;;;;;;;9.38;3.88;;;;;;;18.75;57.33;99795.25;5023746;28;20060;-41
2021/05/16 02:15:14;;;;;;;9.95;4.22;;;;;;;18.73;57.25;99790.25;5022875;28;20056;-40
2021/05/16 02:17:41;;;;;;;8.30;3.90;;;;;;;18.70;57.34;99799.03;5022384;28;20037;-43
2021/05/16 02:20:14;;;;;;;9.07;4.00;;;;;;;18.72;57.22;99798.66;5004915;28;20034;-40
2021/05/16 02:22:39;;;;;;;9.18;4.18;;;;;;;18.74;57.23;99797.16;5004647;28;20038;-41
2021/05/16 02:25:05;;;;;;;8.23;3.95;;;;;;;18.75;57.26;99797.94;5023817;28;20040;-41
2021/05/16 02:27:31;;;;;;;12.25;3.88;;;;;;;18.75;57.13;99798.72;5005718;28;20033;-40
2021/05/16 02:29:56;;;;;;;8.38;3.85;;;;;;;18.76;57.05;99794.91;5022241;28;20041;-40
2021/05/16 02:32:21;;;;;;;9.43;4.20;;;;;;;18.77;57.52;99793.00;5005709;28;20045;-40
2021/05/16 02:34:47;;;;;;;9.75;4.15;;;;;;;18.76;57.24;99802.19;5023160;28;20110;-41
2021/05/16 02:37:12;;;;;;;10.15;4.22;;;;;;;18.76;57.26;99794.13;5022327;28;20037;-43
2021/05/16 02:39:37;;;;;;;10.13;4.18;;;;;;;18.74;56.78;99791.03;5005559;28;20087;-42
2021/05/16 02:42:03;;;;;;;10.30;3.95;;;;;;;18.71;57.21;99797.91;5022406;28;20049;-41
2021/05/16 02:44:28;;;;;;;10.65;4.90;;;;;;;18.67;57.40;99798.97;5005145;28;20420;-44
2021/05/16 02:46:54;;;;;;;12.75;4.68;;;;;;;18.67;56.98;99793.59;5022944;28;20082;-42
2021/05/16 02:49:19;;;;;;;9.45;4.30;;;;;;;18.66;57.25;99795.50;5023272;28;20045;-42
2021/05/16 02:51:45;;;;;;;10.07;4.30;;;;;;;18.71;56.96;99802.50;5005063;28;20041;-41
2021/05/16 02:54:10;;;;;;;10.05;4.45;;;;;;;18.70;57.07;99795.56;5022440;28;20095;-42
2021/05/16 02:56:35;;;;;;;8.82;4.50;;;;;;;18.71;56.96;99802.50;5003945;28;20132;-41
2021/05/16 02:59:01;;;;;;;8.80;4.00;;;;;;;18.72;56.60;99802.13;5022655;28;20052;-43
2021/05/16 03:01:26;;;;;;;11.40;4.85;;;;;;;18.70;57.17;99796.34;5022955;28;20051;-41
2021/05/16 03:03:52;;;;;;;10.73;4.22;;;;;;;18.72;57.07;99801.34;5022839;28;20100;-42
2021/05/16 03:06:17;;;;;;;9.45;4.63;;;;;;;18.69;57.08;99796.69;5021711;28;20297;-42
2021/05/16 03:08:42;;;;;;;8.63;4.07;;;;;;;18.71;57.08;99800.59;5022254;28;20037;-42
2021/05/16 03:11:08;;;;;;;9.30;4.10;;;;;;;18.75;57.05;99803.31;5022754;28;20457;-42
2021/05/16 03:13:33;;;;;;;8.90;3.97;;;;;;;18.74;57.13;99799.84;5022268;28;20044;-43
2021/05/16 03:15:59;;;;;;;10.43;4.25;;;;;;;18.73;57.09;99792.94;5022375;28;20037;-43
2021/05/16 03:18:24;;;;;;;11.18;4.65;;;;;;;18.72;57.01;99791.38;5004197;28;20064;-41
2021/05/16 03:20:50;;;;;;;10.75;4.28;;;;;;;18.73;56.52;99801.00;5004836;28;20055;-41
2021/05/16 03:23:15;;;;;;;9.73;4.50;;;;;;;18.71;56.92;99800.59;5022284;28;20048;-42
2021/05/16 03:25:40;;;;;;;11.23;4.20;;;;;;;18.72;57.02;99807.53;5021833;28;20503;-43
2021/05/16 03:28:06;;;;;;;9.90;4.22;;;;;;;18.73;56.73;99806.38;5021605;28;20037;-43
2021/05/16 03:30:31;;;;;;;9.50;4.15;;;;;;;18.69;57.08;99802.06;5022515;28;20458;-41
2021/05/16 03:32:56;;;;;;;7.50;4.07;;;;;;;18.70;57.07;99803.63;5022631;28;20128;-44
2021/05/16 03:35:22;;;;;;;10.02;4.00;;;;;;;18.70;57.16;99799.03;5021512;28;20091;-43
2021/05/16 03:37:47;;;;;;;13.70;4.78;;;;;;;18.70;57.07;99790.97;5022804;28;20045;-42
2021/05/16 03:40:13;;;;;;;13.23;4.70;;;;;;;18.71;57.05;99795.22;5021828;28;20132;-42
2021/05/16 03:42:38;;;;;;;7.90;4.38;;;;;;;18.70;56.96;99795.56;5021799;28;20431;-43
2021/05/16 03:45:05;;;;;;;7.28;3.85;;;;;;;18.71;57.17;99797.13;5022451;28;20039;-44
2021/05/16 03:47:30;;;;;;;12.40;4.78;;;;;;;18.70;57.17;99795.56;5022221;28;20033;-45
2021/05/16 03:49:56;;;;;;;9.43;4.20;;;;;;;18.70;57.16;99799.03;5022285;28;20029;-42
2021/05/16 03:52:21;;;;;;;8.48;3.97;;;;;;;18.70;56.99;99796.34;5021460;28;20052;-42
2021/05/16 03:54:47;;;;;;;12.38;4.90;;;;;;;18.71;56.87;99797.13;5022405;28;20033;-42
2021/05/16 03:57:13;;;;;;;10.13;3.75;;;;;;;18.70;56.95;99796.34;5022242;28;20034;-42
2021/05/16 03:59:39;;;;;;;9.13;4.50;;;;;;;18.69;57.19;99802.06;5003651;28;20419;-43
2021/05/16 04:02:04;;;;;;;7.80;3.80;;;;;;;18.71;56.80;99805.19;5021889;28;20045;-43
2021/05/16 04:04:29;;;;;;;10.65;4.60;;;;;;;18.69;56.57;99807.44;5022449;28;20048;-41
2021/05/16 04:06:55;;;;;;;9.02;4.05;;;;;;;18.70;57.14;99811.72;5004214;28;20037;-43
2021/05/16 04:09:20;;;;;;;9.73;4.30;;;;;;;18.70;56.83;99809.03;5021372;28;20676;-42
2021/05/16 04:11:45;;;;;;;10.02;3.95;;;;;;;18.69;56.82;99804.75;5004308;28;20043;-43
2021/05/16 04:14:11;;;;;;;8.82;4.07;;;;;;;18.71;56.70;99805.19;5021046;28;20026;-41
2021/05/16 04:16:36;;;;;;;8.80;4.25;;;;;;;18.71;57.01;99811.38;5004640;28;20711;-43
2021/05/16 04:19:02;;;;;;;10.27;4.32;;;;;;;18.72;57.05;99809.44;5021494;28;20041;-43
2021/05/16 04:21:27;;;;;;;9.55;4.20;;;;;;;18.68;57.09;99806.69;5022187;28;20045;-43
2021/05/16 04:23:52;;;;;;;10.38;4.43;;;;;;;18.68;56.95;99806.69;5021686;28;20044;-41
2021/05/16 04:26:18;;;;;;;11.30;4.50;;;;;;;18.69;57.54;99807.44;5021925;28;20044;-43
2021/05/16 04:28:43;;;;;;;9.57;3.83;;;;;;;18.70;56.92;99817.09;5021630;28;20029;-42
2021/05/16 04:31:09;;;;;;;11.13;4.50;;;;;;;18.69;57.31;99810.16;5022695;28;20037;-42
2021/05/16 04:33:34;;;;;;;10.50;3.95;;;;;;;18.68;57.56;99809.38;5004202;28;20475;-45
2021/05/16 04:35:59;;;;;;;13.07;4.53;;;;;;;18.69;56.82;99812.84;5021515;28;20045;-42
2021/05/16 04:38:25;;;;;;;9.52;4.43;;;;;;;18.70;57.15;99815.19;5004119;28;20842;-44
2021/05/16 04:40:51;;;;;;;9.63;4.05;;;;;;;18.69;57.06;99815.53;5022340;28;20095;-42
2021/05/16 04:43:16;;;;;;;9.63;4.35;;;;;;;18.67;56.86;99812.44;5021809;28;20041;-43
2021/05/16 04:45:41;;;;;;;9.50;4.28;;;;;;;18.69;56.98;99804.75;5021698;28;20114;-43
2021/05/16 04:48:07;;;;;;;11.15;3.97;;;;;;;18.66;57.22;99811.66;5003389;28;20045;-44
2021/05/16 04:50:33;;;;;;;11.23;4.47;;;;;;;18.68;57.12;99814.78;5004323;28;20048;-43
2021/05/16 04:52:58;;;;;;;12.13;4.75;;;;;;;18.68;57.05;99824.75;5001790;28;20026;-41
2021/05/16 04:55:23;;;;;;;11.52;5.05;;;;;;;18.64;56.92;99815.84;5004125;28;20038;-43
2021/05/16 04:57:49;;;;;;;9.32;4.10;;;;;;;18.66;56.88;99817.03;5021833;28;20769;-45
2021/05/16 05:00:16;;;;;;;10.82;4.60;;;;;;;18.67;57.13;99825.88;4997863;28;20155;-43
2021/05/16 05:02:41;;;;;;;8.10;4.15;;;;;;;18.68;57.01;99830.13;5002111;28;20530;-43
2021/05/16 05:05:07;;;;;;;9.30;4.30;;;;;;;18.66;57.05;99827.03;5002686;28;20052;-44
2021/05/16 05:07:33;;;;;;;12.57;4.80;;;;;;;18.63;57.12;99827.75;5019859;28;20104;-42
2021/05/16 05:09:58;;;;;;;12.15;4.60;;;;;;;18.63;56.93;99831.22;5001283;28;20044;-42
2021/05/16 05:12:24;;;;;;;11.48;4.63;;;;;;;18.62;57.15;99826.19;5021044;28;20069;-42
2021/05/16 05:14:49;;;;;;;11.63;4.65;;;;;;;18.63;57.07;99828.53;5021090;28;20053;-46
2021/05/16 05:17:14;;;;;;;11.90;4.65;;;;;;;18.64;57.05;99832.75;5020144;28;20063;-42
2021/05/16 05:19:40;;;;;;;11.75;4.90;;;;;;;18.65;57.17;99822.78;5023329;28;20049;-41
2021/05/16 05:22:05;;;;;;;8.45;4.43;;;;;;;18.65;57.26;99828.94;5006337;28;20055;-42
2021/05/16 05:24:30;;;;;;;9.80;4.20;;;;;;;18.66;57.24;99837.81;4989208;28;20100;-46
2021/05/16 05:26:56;;;;;;;10.73;4.80;;;;;;;18.65;57.09;99842.41;5006597;28;20041;-44
2021/05/16 05:29:21;;;;;;;9.70;4.70;;;;;;;18.63;57.00;99831.22;5023860;28;20595;-44
2021/05/16 05:31:47;;;;;;;9.95;4.53;;;;;;;18.63;56.99;99833.13;5024747;28;20060;-46
2021/05/16 05:34:12;;;;;;;10.70;4.78;;;;;;;18.66;57.16;99835.13;5024024;28;20033;-45
2021/05/16 05:36:37;;;;;;;9.65;4.80;;;;;;;18.64;57.03;99840.84;5022606;28;20045;-46
2021/05/16 05:39:03;;;;;;;12.52;5.00;;;;;;;18.66;57.13;99835.13;5006268;28;20039;-45
2021/05/16 05:41:28;;;;;;;13.30;4.45;;;;;;;18.65;57.06;99837.03;4990027;28;20033;-43
2021/05/16 05:43:54;;;;;;;10.55;4.45;;;;;;;18.68;57.22;99848.97;5024045;28;20681;-43
2021/05/16 05:46:19;;;;;;;12.20;4.70;;;;;;;18.64;57.10;99837.38;5022806;28;20067;-43
2021/05/16 05:48:45;;;;;;;11.88;4.88;;;;;;;18.63;57.31;99839.31;5005718;28;20075;-44
2021/05/16 05:51:10;;;;;;;15.73;5.05;;;;;;;18.65;57.17;99837.03;5004050;28;20705;-45
2021/05/16 05:53:36;;;;;;;11.40;4.95;;;;;;;18.67;57.17;99840.13;5005068;28;20306;-43
2021/05/16 05:56:02;;;;;;;11.85;5.50;;;;;;;18.67;57.26;99833.97;5021426;28;20384;-43
2021/05/16 05:58:32;;;;;;;9.65;4.75;;;;;;;18.67;57.46;99842.03;5022503;28;20091;-47
2021/05/16 06:00:57;;;;;;;12.43;4.93;;;;;;;18.68;57.05;99836.31;5021961;28;20073;-47
2021/05/16 06:03:23;;;;;;;12.77;4.40;;;;;;;18.66;57.01;99843.19;5022399;28;20041;-44
2021/05/16 06:05:48;;;;;;;17.63;5.65;;;;;;;18.60;57.20;99844.63;5004526;28;20043;-43
2021/05/16 06:08:14;;;;;;;12.25;5.38;;;;;;;18.60;57.22;99848.09;5003688;28;20033;-51
2021/05/16 06:10:39;;;;;;;11.52;4.80;;;;;;;18.62;57.33;99845.81;5022190;28;20029;-49
2021/05/16 06:13:04;;;;;;;17.70;5.50;;;;;;;18.60;57.15;99837.31;5022196;28;20034;-44
2021/05/16 06:15:30;;;;;;;12.65;5.78;;;;;;;18.57;57.21;99851.50;5015708;28;20056;-46
2021/05/16 06:17:55;;;;;;;16.55;5.60;;;;;;;18.59;57.14;99843.03;5010868;28;20033;-44
2021/05/16 06:20:20;;;;;;;15.98;5.20;;;;;;;18.58;57.01;99853.03;5012798;28;20041;-44
2021/05/16 06:22:46;;;;;;;12.80;5.90;;;;;;;18.60;57.07;99848.09;5003015;28;20402;-44
2021/05/16 06:25:11;;;;;;;13.43;5.40;;;;;;;18.62;57.16;99848.50;4987991;28;20037;-46
2021/05/16 06:27:37;;;;;;;17.05;5.50;;;;;;;18.60;57.28;99839.22;5021660;28;20055;-47
2021/05/16 06:30:04;;;;;;;13.18;4.88;;;;;;;18.63;57.20;99857.34;5020658;28;20037;-45
2021/05/16 06:32:29;;;;;;;14.50;5.38;;;;;;;18.60;56.92;99850.78;5004533;28;20041;-45
2021/05/16 06:34:54;;;;;;;13.05;5.07;;;;;;;18.59;57.07;99851.91;5003837;28;21174;-44
2021/05/16 06:37:21;;;;;;;15.27;5.45;;;;;;;18.63;57.34;99857.34;5021574;28;20041;-43
2021/05/16 06:39:46;;;;;;;16.40;5.50;;;;;;;18.62;57.25;99859.25;5003973;28;20041;-45
2021/05/16 06:42:11;;;;;;;15.18;5.90;;;;;;;18.55;57.19;99847.59;5003419;28;20045;-49
2021/05/16 06:44:37;;;;;;;13.05;6.18;;;;;;;18.54;56.99;99856.81;4987191;28;21304;-49
2021/05/16 06:47:02;;;;;;;15.07;5.88;;;;;;;18.52;56.82;99853.69;5021266;28;20042;-46
2021/05/16 06:49:27;;;;;;;18.17;5.82;;;;;;;18.52;56.79;99862.56;5004291;28;20793;-48
2021/05/16 06:51:53;;;;;;;16.70;5.80;;;;;;;18.54;56.71;99859.50;5020380;28;20051;-49
2021/05/16 06:54:18;;;;;;;14.85;5.50;;;;;;;18.50;56.75;99861.34;4994845;28;20025;-45
2021/05/16 06:56:43;;;;;;;14.70;5.40;;;;;;;18.57;56.69;99858.78;5021185;28;20068;-50
2021/05/16 06:59:09;;;;;;;14.77;4.93;;;;;;;18.57;56.86;99862.25;5021247;28;20041;-43
2021/05/16 07:01:34;;;;;;;14.63;5.50;;;;;;;18.55;56.76;99867.19;4986959;28;20053;-47
2021/05/16 07:04:00;;;;;;;15.40;5.95;;;;;;;18.55;56.50;99863.75;5020966;28;20483;-44
2021/05/16 07:06:25;;;;;;;19.02;6.03;;;;;;;18.55;56.66;99864.50;5020491;28;20043;-46
2021/05/16 07:08:51;;;;;;;20.15;6.53;;;;;;;18.55;56.58;99872.56;5003259;28;20590;-44
2021/05/16 07:11:16;;;;;;;19.30;5.80;;;;;;;18.46;57.27;99873.94;5020899;28;20565;-49
2021/05/16 07:13:41;;;;;;;13.02;5.47;;;;;;;18.52;56.57;99872.53;5019854;28;20682;-48
2021/05/16 07:16:07;;;;;;;16.17;5.80;;;;;;;18.46;56.51;99872.03;5001979;28;20722;-46
2021/05/16 07:18:32;;;;;;;18.02;5.47;;;;;;;18.50;56.66;99874.78;5020298;28;20045;-47
2021/05/16 07:20:57;;;;;;;12.48;5.43;;;;;;;18.50;56.37;99874.78;5020280;28;20047;-44
2021/05/16 07:23:23;;;;;;;18.65;5.95;;;;;;;18.54;56.46;99881.03;5020853;28;20828;-47
2021/05/16 07:25:48;;;;;;;16.73;5.43;;;;;;;18.53;56.29;99884.84;5021034;28;20094;-50
2021/05/16 07:28:13;;;;;;;21.83;5.47;;;;;;;18.51;56.08;99881.72;5002422;28;20041;-48
2021/05/16 07:30:39;;;;;;;15.40;5.43;;;;;;;18.46;56.26;99882.00;5020171;28;20074;-47
2021/05/16 07:33:04;;;;;;;15.10;5.53;;;;;;;18.46;56.44;99882.00;5003419;28;20037;-48
2021/05/16 07:35:30;;;;;;;12.65;5.03;;;;;;;18.50;56.42;99894.41;5020370;28;20045;-49
2021/05/16 07:37:55;;;;;;;14.95;4.90;;;;;;;18.50;56.21;99893.63;5020897;28;20496;-48
2021/05/16 07:40:20;;;;;;;14.48;5.22;;;;;;;18.50;56.26;99885.53;5017639;28;21007;-46
2021/05/16 07:42:46;;;;;;;12.25;5.18;;;;;;;18.51;56.19;99893.28;5019711;28;20041;-48
2021/05/16 07:45:12;;;;;;;14.15;5.32;;;;;;;18.52;56.05;99891.38;5020032;28;20038;-49
2021/05/16 07:47:38;;;;;;;12.55;5.43;;;;;;;18.52;56.34;99889.47;5021485;28;20041;-46
2021/05/16 07:50:05;;;;;;;13.38;5.78;;;;;;;18.52;56.16;99892.16;5017056;28;20132;-48
2021/05/16 07:52:30;;;;;;;14.57;4.93;;;;;;;18.53;56.55;99885.63;5019656;28;20036;-49
2021/05/16 07:54:55;;;;;;;13.07;5.15;;;;;;;18.55;56.50;99883.34;5021838;28;20041;-48
2021/05/16 07:57:21;;;;;;;13.65;5.35;;;;;;;18.53;56.27;99896.38;5021027;28;20059;-46
2021/05/16 07:59:46;;;;;;;9.73;4.80;;;;;;;18.55;56.40;99887.97;5021123;28;20539;-43
2021/05/16 08:02:12;;;;;;;11.57;4.93;;;;;;;18.55;56.24;99898.72;5020606;28;20057;-48
2021/05/16 08:04:37;;;;;;;14.30;4.97;;;;;;;18.54;56.15;99887.19;5020805;28;20053;-50
2021/05/16 08:07:03;;;;;;;13.70;5.47;;;;;;;18.55;56.34;99893.34;5003127;28;20052;-50
2021/05/16 08:09:28;;;;;;;13.02;5.32;;;;;;;18.58;57.73;99887.25;5020586;28;20037;-48
2021/05/16 08:11:53;;;;;;;17.23;5.32;;;;;;;18.64;58.01;99891.19;5021581;28;20041;-47
2021/05/16 08:14:19;;;;;;;17.67;6.50;;;;;;;18.58;57.97;99895.31;4983616;28;20033;-51
2021/05/16 08:16:44;;;;;;;14.40;5.88;;;;;;;18.59;57.66;99888.78;5020478;28;20052;-51
2021/05/16 08:19:10;;;;;;;17.40;5.68;;;;;;;18.63;58.78;99903.09;5020425;28;20106;-49
2021/05/16 08:21:36;;;;;;;17.85;7.40;;;;;;;18.62;60.24;99891.56;5019261;28;20041;-48
2021/05/16 08:24:01;;;;;;;23.67;7.32;;;;;;;18.65;60.06;99896.22;4985152;28;20120;-45
2021/05/16 08:26:27;;;;;;;16.35;7.13;;;;;;;18.67;59.72;99895.84;5002743;28;20407;-44
2021/05/16 08:28:52;;;;;;;15.57;7.03;;;;;;;18.61;58.83;99899.97;5020271;28;20045;-44
2021/05/16 08:31:17;;;;;;;14.23;6.30;;;;;;;18.57;58.58;99894.53;4985552;28;20410;-46
2021/05/16 08:33:43;;;;;;;19.45;6.68;;;;;;;18.51;58.12;99892.50;4995327;28;20034;-45
2021/05/16 08:36:08;;;;;;;16.40;7.00;;;;;;;18.54;57.63;99897.16;5000934;28;20049;-46
2021/05/16 08:38:35;;;;;;;17.23;6.60;;;;;;;18.51;57.23;99892.50;5019505;28;20037;-47
2021/05/16 08:41:00;;;;;;;22.75;6.95;;;;;;;18.55;57.23;99890.66;5000920;28;20056;-45
2021/05/16 08:43:25;;;;;;;12.52;6.78;;;;;;;18.59;57.57;99888.78;5020320;28;20598;-48
2021/05/16 08:45:51;;;;;;;14.65;6.25;;;;;;;18.65;57.15;99892.75;5021064;28;20842;-48
2021/05/16 08:48:16;;;;;;;17.33;6.60;;;;;;;18.65;56.66;99885.47;5010996;28;20037;-49
2021/05/16 08:50:41;;;;;;;12.25;5.85;;;;;;;18.62;56.90;99890.78;5018563;28;20426;-46
2021/05/16 08:53:07;;;;;;;16.23;6.28;;;;;;;18.60;56.50;99890.34;5019691;28;20030;-49
2021/05/16 08:55:36;;;;;;;15.65;6.60;;;;;;;18.62;56.61;99883.47;5023910;28;20684;-47
2021/05/16 08:58:01;;;;;;;17.58;6.50;;;;;;;18.64;56.66;99883.88;5022607;28;20579;-47
2021/05/16 09:00:27;;;;;;;11.25;5.65;;;;;;;18.68;56.62;99892.03;5007141;28;20127;-45
2021/05/16 09:03:05;;;;;;;18.95;6.75;;;;;;;18.66;57.10;99883.56;5023581;28;20052;-50
2021/05/16 09:05:37;;;;;;;13.18;6.20;;;;;;;18.66;56.91;99888.94;5021588;28;20041;-47
2021/05/16 09:08:13;;;;;;;14.80;5.70;;;;;;;18.66;56.55;99886.25;5023945;28;20124;-48
2021/05/16 09:10:45;;;;;;;16.45;6.07;;;;;;;18.68;56.41;99882.06;5005802;28;20511;-47
2021/05/16 09:13:12;;;;;;;17.35;5.85;;;;;;;18.67;56.38;99880.50;5005334;28;20694;-49
2021/05/16 09:15:37;;;;;;;17.00;5.78;;;;;;;18.70;56.21;99876.31;5023738;28;20067;-45
2021/05/16 09:18:03;;;;;;;14.02;5.78;;;;;;;18.66;56.26;99875.47;5005077;28;20144;-49
2021/05/16 09:20:28;;;;;;;17.50;6.72;;;;;;;18.67;56.03;99882.41;5023268;28;20787;-45
2021/05/16 09:22:54;;;;;;;14.20;6.18;;;;;;;18.70;55.76;99885.16;5005713;28;20041;-46
2021/05/16 09:25:30;;;;;;;16.42;6.43;;;;;;;18.71;56.10;99883.25;5022324;28;20102;-49
2021/05/16 09:28:08;;;;;;;22.73;7.22;;;;;;;18.67;56.06;99880.50;5005880;28;20095;-44
2021/05/16 09:30:33;;;;;;;16.20;5.90;;;;;;;18.69;55.81;99874.72;5004783;28;20045;-47
2021/05/16 09:33:01;;;;;;;18.00;5.97;;;;;;;18.69;55.85;99882.81;5023416;28;20083;-46
2021/05/16 09:35:34;;;;;;;18.00;6.20;;;;;;;18.68;55.58;99879.38;5005596;28;20050;-47
2021/05/16 09:38:16;;;;;;;14.48;5.93;;;;;;;18.75;55.70;99878.69;5019855;28;20066;-47
2021/05/16 09:40:49;;;;;;;12.05;5.43;;;;;;;18.74;55.75;99875.22;4993537;28;20049;-52
2021/05/16 09:43:27;;;;;;;15.85;6.03;;;;;;;18.74;55.49;99875.22;5013401;28;20053;-50
2021/05/16 09:45:54;;;;;;;21.05;5.57;;;;;;;18.77;55.51;99876.44;5017392;28;20562;-48
2021/05/16 09:48:30;;;;;;;19.45;6.47;;;;;;;18.79;55.44;99872.25;4999963;28;20036;-46
2021/05/16 09:51:20;;;;;;;18.20;6.28;;;;;;;18.79;55.66;99879.53;5014775;28;20040;-48
2021/05/16 09:53:49;;;;;;;11.77;5.75;;;;;;;18.76;56.04;99872.19;4999822;28;20046;-49
2021/05/16 09:56:21;;;;;;;14.82;6.13;;;;;;;18.72;56.03;99865.94;5014484;28;20113;-46
2021/05/16 09:58:46;;;;;;;16.13;5.97;;;;;;;18.74;55.68;99867.13;5019772;28;20091;-50
2021/05/16 10:01:13;;;;;;;13.25;5.80;;;;;;;18.77;55.81;99866.41;5019966;28;20029;-50
2021/05/16 10:03:38;;;;;;;11.38;5.13;;;;;;;18.75;55.52;99860.63;5012964;28;20049;-48
2021/05/16 10:06:04;;;;;;;14.65;6.25;;;;;;;18.76;55.77;99864.09;4978326;28;20038;-48
2021/05/16 10:08:30;;;;;;;13.15;5.35;;;;;;;18.81;55.54;99872.66;4992856;28;20574;-47
2021/05/16 10:10:56;;;;;;;12.82;5.30;;;;;;;18.82;55.74;99868.81;5000902;28;20160;-48
2021/05/16 10:13:22;;;;;;;13.50;5.32;;;;;;;18.80;55.33;99875.69;5012372;28;20048;-46
2021/05/16 10:15:47;;;;;;;13.48;5.05;;;;;;;18.81;55.52;99874.56;5021252;28;20120;-47
2021/05/16 10:18:12;;;;;;;11.38;5.43;;;;;;;18.79;55.17;99866.88;4981296;28;20046;-46
2021/05/16 10:20:39;;;;;;;16.15;5.53;;;;;;;18.81;55.60;99869.97;4976792;28;20412;-47
2021/05/16 10:23:06;;;;;;;11.70;5.20;;;;;;;18.84;55.76;99865.78;4985044;28;20042;-51
2021/05/16 10:25:42;;;;;;;12.32;4.70;;;;;;;18.86;55.42;99866.19;5015481;28;20045;-49
2021/05/16 10:28:16;;;;;;;15.65;5.50;;;;;;;18.84;55.37;99857.69;5021114;28;20110;-45
2021/05/16 10:31:00;;;;;;;;;;;;;;;18.86;55.46;99856.19;5002675;28;20066;-47
2021/05/16 10:33:35;;;;;;;20.60;5.45;;;;;;;18.88;55.51;99859.28;5001315;28;19921;-48
2021/05/16 10:36:01;;;;;;;15.80;5.47;;;;;;;18.86;55.42;99858.09;5017513;28;20045;-48
2021/05/16 10:38:33;;;;;;;17.25;5.28;;;;;;;18.84;55.25;99855.78;4998723;28;20045;-50
2021/05/16 10:41:18;;;;;;;18.90;5.25;;;;;;;18.85;55.27;99854.63;5009527;28;20092;-50
2021/05/16 10:43:43;;;;;;;10.73;4.72;;;;;;;18.84;55.17;99841.53;5007835;28;20076;-51
2021/05/16 10:46:39;;;;;;;18.38;4.55;;;;;;;18.80;55.34;99843.38;4994325;28;20033;-49
2021/05/16 10:49:24;;;;;;;13.45;4.55;;;;;;;18.88;54.98;99840.44;5010434;28;20065;-48
2021/05/16 10:51:49;;;;;;;13.68;4.20;;;;;;;18.89;55.19;99836.63;5019665;28;20113;-48
2021/05/16 10:54:27;;;;;;;11.23;3.72;;;;;;;18.83;55.45;99848.06;4976991;28;20031;-46
2021/05/16 10:57:15;;;;;;;14.80;3.97;;;;;;;18.88;55.41;99845.84;5005713;28;20054;-44
2021/05/16 10:59:40;;;;;;;12.35;4.40;;;;;;;18.92;55.56;99846.69;5009276;28;20037;-52
2021/05/16 11:02:05;;;;;;;19.98;5.22;;;;;;;18.93;55.72;99847.47;5012015;28;20030;-45
2021/05/16 11:04:47;;;;;;;14.10;4.10;;;;;;;18.93;55.46;99844.78;4992470;28;20068;-50
2021/05/16 11:07:32;;;;;;;12.50;4.38;;;;;;;18.93;55.50;99839.41;5004302;28;20526;-48
2021/05/16 11:10:15;;;;;;;;;;;;;;;18.87;55.17;99836.22;5013397;28;20108;-47
2021/05/16 11:12:41;;;;;;;14.00;4.00;;;;;;;18.84;54.97;99833.47;4995509;28;19945;-49
2021/05/16 11:15:07;;;;;;;19.88;4.10;;;;;;;18.88;55.00;99831.59;5020208;28;20527;-51
2021/05/16 11:17:32;;;;;;;17.52;4.03;;;;;;;18.93;55.04;99821.31;4998761;28;20038;-47
2021/05/16 11:19:57;;;;;;;12.40;4.03;;;;;;;18.93;54.93;99828.63;5003413;28;21054;-49
2021/05/16 11:22:23;;;;;;;8.80;3.40;;;;;;;18.93;54.62;99832.06;4970377;28;20038;-44
2021/05/16 11:24:49;;;;;;;8.77;3.83;;;;;;;18.91;54.83;99828.97;4989168;28;20129;-46
2021/05/16 11:27:22;;;;;;;8.98;3.28;;;;;;;18.93;54.81;99824.00;5002184;28;20526;-47